Huvudsida
METAR-TAF:

METAR-TAF

Flygplatser :

Cibao International Airport

Santiago de los Caballeros, Dominikanska republiken

latitud: 19-27N, longitud: 070-42W, höjd: 183 m

Aktuellt väderrapport

Denna rapport gjordes för 38 minuter sedan, klockan 22:00 UTC
Vind 7 kt från ost/sydost
Temperatur 27°C
Fuktighet 70%
Tryck 1014 hPa
Sikt 10 km eller mer
Få moln på en höjd av 1800 ft, Cumulonimbus.
Spridda moln på en höjd av 1800 ft

METAR: MDST 202200Z 11007KT 9999 FEW018CB SCT018 27/21 Q1014 CB/SW/W

Tid: 18:38 (22:38 UTC)

Väderprognos

Denna rapport gjordes för 6 timmar och 38 minuter sedan, klockan 16:00 UTC
Prognos gäller från 20 kl. 18 UTC till 21 kl. 18 UTC
Vind 8 kt från ost/sydost
Sikt 10 km eller mer
Spridda moln på en höjd av 2200 ft
Sannolikhet 30%
från 20 kl. 18 UTC till 21 kl. 00 UTC
Sikt: 6000 m
Få moln på en höjd av 1800 ft, Cumulonimbus.
Brutna moln på en höjd av 2000 ft
åska, lätt regn

TAF: MDST 201600Z 2018/2118 12008KT 9999 SCT022 PROB30 2018/2100 6000 -TSRA FEW018CB BKN020

Aktuella väderrapporter och prognoser från 4000 flygplatser (METAR- och TAF-rapporter).

De tillgängliga stationerna syns som gula och röda prickar på kartan.

För musen över prickarna för att se namnen på stationerna.

Klicka sedan för att få väderrapporter och prognoser.

För att ändra kartan: Klicka på de gröna knapparna med ett svart kors på för att zooma in; den gröna knappen med ett streck på för att zooma ut; eller på de gröna pilarna för angränsande kartor.


METAR-TAF: